Roedersville, Pennsylvania
Current Conditions -  °F | °C
As of 11:58 PM on Tuesday 21 Oct 2014 (Local Time) from KMUI Reporting Station
Broken Clouds Broken Clouds  
Wind Chill: 54°   Ceiling: 10000
Heat Index: 54°   Visibility: 10mi
Dew Point: 53°   Wind: 3mph
Humidity: 96%   Direction: NA
Pressure: 29.91"   Gusts: NA
Location:  40.5592°N, 76.3347°W
Report Text: KMUI 220358Z AUTO VRB03KT 10SM FEW039 BKN100 12/12 A2991 RMK AO2 SLP131 T01210115 $
Loading
Personal Weather Stations






























Interactive Weather Map
Tropical Storm Tracking
New forecast layout! Learn more

10-Day Weather Forecast

Advertisements
Track Severe Weather on mobile